NCAR-RAP Real-Time Weather Data

Output produced by METARs form (06 May 2021  16:19 UTC)
found at http://weather.rap.ucar.edu/surface/
 
KSAV 061553Z 27010KT 10SM FEW040 FEW200 26/15 A3001 RMK AO2 SLP160 T02610150
KSAV 061453Z 31008KT 280V340 10SM FEW040 FEW250 25/16 A3001 RMK AO2 SLP162 T02500156 58004
KSAV 061353Z 28004KT 10SM FEW050 23/16 A3002 RMK AO2 SLP164 T02280161
KSAV 061253Z 32005KT 10SM FEW039 SCT060 22/17 A3002 RMK AO2 SLP166 T02170167
KSAV 061153Z 31007KT 10SM FEW060 20/17 A3002 RMK AO2 SLP165 T02000172 10206 20189 53008
KSAV 061053Z 31007KT 10SM SCT060 19/17 A3001 RMK AO2 SLP161 T01940172
KSAV 060953Z 29005KT 10SM SCT070 19/18 A3000 RMK AO2 SLP158 T01940183
KSAV 060853Z AUTO 28007KT 10SM FEW080 20/18 A3000 RMK AO2 SLP157 T02000183 55001
KSAV 060753Z AUTO 27005KT 10SM BKN080 20/18 A2999 RMK AO2 SLP155 T02000183
KSAV 060653Z AUTO 27004KT 10SM BKN065 20/18 A2999 RMK AO2 SLP155 T02000183
KSAV 060553Z AUTO 25004KT 10SM CLR 21/18 A3000 RMK AO2 SLP158 T02060183 10256 20206 55000
KSAV 060453Z AUTO 26003KT 10SM CLR 21/18 A3000 RMK AO2 SLP159 T02110178 402890194
KSAV 060353Z 26006KT 10SM FEW055 SCT200 22/18 A2999 RMK AO2 SLP154 LAST T02220178
KSAV 060253Z 22007KT 10SM FEW060 SCT200 23/18 A3000 RMK AO2 SLP158 T02330183 51012
KSAV 060153Z 27007KT 10SM SCT060 BKN180 24/18 A2999 RMK AO2 SLP154 T02390178
KSAV 060053Z 30006KT 10SM FEW046 BKN180 24/19 A2998 RMK AO2 SLP152 T02440189